sensor_id;sensor_type;location;lat;lon;timestamp;P1;durP1;ratioP1;P2;durP2;ratioP2
14066;SDS011;7108;42.684;23.350;2022-11-15T00:01:16;256.70;;;115.37;;
14066;SDS011;7108;42.684;23.350;2022-11-15T00:03:43;264.63;;;117.77;;
14066;SDS011;7108;42.684;23.350;2022-11-15T00:06:09;262.77;;;114.63;;
14066;SDS011;7108;42.684;23.350;2022-11-15T00:08:35;269.43;;;118.23;;
14066;SDS011;7108;42.684;23.350;2022-11-15T00:11:04;265.47;;;115.97;;
14066;SDS011;7108;42.684;23.350;2022-11-15T00:13:29;257.47;;;116.77;;
14066;SDS011;7108;42.684;23.350;2022-11-15T00:16:04;256.73;;;112.70;;
14066;SDS011;7108;42.684;23.350;2022-11-15T00:18:39;262.43;;;116.47;;
14066;SDS011;7108;42.684;23.350;2022-11-15T00:21:11;261.73;;;113.90;;
14066;SDS011;7108;42.684;23.350;2022-11-15T00:23:40;287.67;;;117.43;;
14066;SDS011;7108;42.684;23.350;2022-11-15T00:26:06;266.33;;;114.77;;
14066;SDS011;7108;42.684;23.350;2022-11-15T00:28:35;295.60;;;119.20;;
14066;SDS011;7108;42.684;23.350;2022-11-15T00:31:04;272.67;;;116.13;;
14066;SDS011;7108;42.684;23.350;2022-11-15T00:33:35;294.03;;;116.33;;
14066;SDS011;7108;42.684;23.350;2022-11-15T00:36:05;275.63;;;117.70;;
14066;SDS011;7108;42.684;23.350;2022-11-15T00:38:32;263.08;;;113.90;;
14066;SDS011;7108;42.684;23.350;2022-11-15T00:40:59;251.07;;;113.75;;
14066;SDS011;7108;42.684;23.350;2022-11-15T00:43:25;260.93;;;114.23;;
14066;SDS011;7108;42.684;23.350;2022-11-15T00:45:51;258.60;;;111.63;;
14066;SDS011;7108;42.684;23.350;2022-11-15T00:48:17;246.15;;;111.72;;
14066;SDS011;7108;42.684;23.350;2022-11-15T00:50:43;245.37;;;110.70;;
14066;SDS011;7108;42.684;23.350;2022-11-15T00:53:11;240.97;;;110.33;;
14066;SDS011;7108;42.684;23.350;2022-11-15T00:55:43;253.20;;;110.97;;
14066;SDS011;7108;42.684;23.350;2022-11-15T00:58:11;242.35;;;107.93;;
14066;SDS011;7108;42.684;23.350;2022-11-15T01:00:37;243.13;;;108.43;;
14066;SDS011;7108;42.684;23.350;2022-11-15T01:03:03;237.37;;;107.43;;
14066;SDS011;7108;42.684;23.350;2022-11-15T01:05:31;235.23;;;104.03;;
14066;SDS011;7108;42.684;23.350;2022-11-15T01:07:56;254.30;;;111.97;;
14066;SDS011;7108;42.684;23.350;2022-11-15T01:10:25;255.17;;;107.90;;
14066;SDS011;7108;42.684;23.350;2022-11-15T01:12:53;239.80;;;106.37;;
14066;SDS011;7108;42.684;23.350;2022-11-15T01:15:19;224.63;;;106.60;;
14066;SDS011;7108;42.684;23.350;2022-11-15T01:17:54;242.47;;;107.73;;
14066;SDS011;7108;42.684;23.350;2022-11-15T01:20:22;238.13;;;105.95;;
14066;SDS011;7108;42.684;23.350;2022-11-15T01:22:48;234.30;;;106.50;;
14066;SDS011;7108;42.684;23.350;2022-11-15T01:25:14;226.13;;;101.20;;
14066;SDS011;7108;42.684;23.350;2022-11-15T01:27:42;234.75;;;102.75;;
14066;SDS011;7108;42.684;23.350;2022-11-15T01:30:10;239.45;;;103.65;;
14066;SDS011;7108;42.684;23.350;2022-11-15T01:32:42;228.73;;;104.80;;
14066;SDS011;7108;42.684;23.350;2022-11-15T01:35:16;238.50;;;103.73;;
14066;SDS011;7108;42.684;23.350;2022-11-15T01:37:48;233.00;;;104.85;;
14066;SDS011;7108;42.684;23.350;2022-11-15T01:40:14;229.75;;;102.18;;
14066;SDS011;7108;42.684;23.350;2022-11-15T01:42:44;229.45;;;102.75;;
14066;SDS011;7108;42.684;23.350;2022-11-15T01:45:14;244.15;;;101.43;;
14066;SDS011;7108;42.684;23.350;2022-11-15T01:47:45;250.07;;;103.57;;
14066;SDS011;7108;42.684;23.350;2022-11-15T01:50:21;230.35;;;102.38;;
14066;SDS011;7108;42.684;23.350;2022-11-15T01:52:50;227.73;;;101.90;;
14066;SDS011;7108;42.684;23.350;2022-11-15T01:55:24;241.80;;;103.15;;
14066;SDS011;7108;42.684;23.350;2022-11-15T01:57:53;244.70;;;103.97;;
14066;SDS011;7108;42.684;23.350;2022-11-15T02:00:25;251.63;;;101.43;;
14066;SDS011;7108;42.684;23.350;2022-11-15T02:02:52;248.93;;;102.18;;
14066;SDS011;7108;42.684;23.350;2022-11-15T02:05:17;249.43;;;104.27;;
14066;SDS011;7108;42.684;23.350;2022-11-15T02:07:49;255.77;;;102.75;;
14066;SDS011;7108;42.684;23.350;2022-11-15T02:10:19;233.57;;;100.03;;
14066;SDS011;7108;42.684;23.350;2022-11-15T02:12:47;251.18;;;100.28;;
14066;SDS011;7108;42.684;23.350;2022-11-15T02:15:13;232.60;;;101.03;;
14066;SDS011;7108;42.684;23.350;2022-11-15T02:17:44;256.60;;;102.03;;
14066;SDS011;7108;42.684;23.350;2022-11-15T02:20:53;247.50;;;101.15;;
14066;SDS011;7108;42.684;23.350;2022-11-15T02:26:11;244.65;;;101.32;;
14066;SDS011;7108;42.684;23.350;2022-11-15T02:29:05;233.07;;;99.28;;
14066;SDS011;7108;42.684;23.350;2022-11-15T02:31:45;236.90;;;100.63;;
14066;SDS011;7108;42.684;23.350;2022-11-15T02:34:27;234.45;;;99.53;;
14066;SDS011;7108;42.684;23.350;2022-11-15T02:43:15;245.10;;;102.13;;
14066;SDS011;7108;42.684;23.350;2022-11-15T02:49:19;215.75;;;96.38;;
14066;SDS011;7108;42.684;23.350;2022-11-15T02:51:46;230.25;;;100.03;;
14066;SDS011;7108;42.684;23.350;2022-11-15T02:54:19;235.75;;;101.82;;
14066;SDS011;7108;42.684;23.350;2022-11-15T02:56:47;251.73;;;99.03;;
14066;SDS011;7108;42.684;23.350;2022-11-15T03:04:54;224.75;;;98.80;;
14066;SDS011;7108;42.684;23.350;2022-11-15T03:07:30;259.00;;;103.68;;
14066;SDS011;7108;42.684;23.350;2022-11-15T03:12:55;235.73;;;99.90;;
14066;SDS011;7108;42.684;23.350;2022-11-15T03:20:48;226.50;;;96.18;;
14066;SDS011;7108;42.684;23.350;2022-11-15T03:23:23;254.55;;;102.80;;
14066;SDS011;7108;42.684;23.350;2022-11-15T03:25:53;234.65;;;99.88;;
14066;SDS011;7108;42.684;23.350;2022-11-15T03:28:27;262.63;;;99.47;;
14066;SDS011;7108;42.684;23.350;2022-11-15T03:30:59;243.63;;;100.57;;
14066;SDS011;7108;42.684;23.350;2022-11-15T03:33:46;256.17;;;102.50;;
14066;SDS011;7108;42.684;23.350;2022-11-15T03:36:14;248.02;;;101.00;;
14066;SDS011;7108;42.684;23.350;2022-11-15T03:38:40;246.23;;;100.18;;
14066;SDS011;7108;42.684;23.350;2022-11-15T03:41:20;256.85;;;98.75;;
14066;SDS011;7108;42.684;23.350;2022-11-15T03:43:55;233.57;;;98.30;;
14066;SDS011;7108;42.684;23.350;2022-11-15T03:46:36;247.88;;;103.05;;
14066;SDS011;7108;42.684;23.350;2022-11-15T03:49:11;239.20;;;99.65;;
14066;SDS011;7108;42.684;23.350;2022-11-15T03:51:51;240.60;;;100.55;;
14066;SDS011;7108;42.684;23.350;2022-11-15T03:54:19;230.70;;;98.43;;
14066;SDS011;7108;42.684;23.350;2022-11-15T03:56:48;240.13;;;102.15;;
14066;SDS011;7108;42.684;23.350;2022-11-15T03:59:14;246.87;;;101.33;;
14066;SDS011;7108;42.684;23.350;2022-11-15T04:01:42;261.07;;;99.80;;
14066;SDS011;7108;42.684;23.350;2022-11-15T04:04:08;268.87;;;109.97;;
14066;SDS011;7108;42.684;23.350;2022-11-15T04:06:33;310.30;;;112.60;;
14066;SDS011;7108;42.684;23.350;2022-11-15T04:09:02;271.33;;;108.63;;
14066;SDS011;7108;42.684;23.350;2022-11-15T04:11:28;263.20;;;109.13;;
14066;SDS011;7108;42.684;23.350;2022-11-15T04:13:53;245.33;;;104.03;;
14066;SDS011;7108;42.684;23.350;2022-11-15T04:16:34;248.13;;;106.87;;
14066;SDS011;7108;42.684;23.350;2022-11-15T04:19:00;263.35;;;107.90;;
14066;SDS011;7108;42.684;23.350;2022-11-15T04:21:43;259.00;;;103.78;;
14066;SDS011;7108;42.684;23.350;2022-11-15T04:24:27;252.70;;;106.15;;
14066;SDS011;7108;42.684;23.350;2022-11-15T04:26:53;254.40;;;106.03;;
14066;SDS011;7108;42.684;23.350;2022-11-15T04:29:21;243.07;;;104.43;;
14066;SDS011;7108;42.684;23.350;2022-11-15T04:32:19;240.05;;;99.35;;
14066;SDS011;7108;42.684;23.350;2022-11-15T04:34:48;255.32;;;104.75;;
14066;SDS011;7108;42.684;23.350;2022-11-15T04:37:19;236.82;;;102.22;;
14066;SDS011;7108;42.684;23.350;2022-11-15T04:39:51;236.85;;;101.75;;
14066;SDS011;7108;42.684;23.350;2022-11-15T04:42:19;231.27;;;101.35;;
14066;SDS011;7108;42.684;23.350;2022-11-15T04:44:48;236.57;;;98.30;;
14066;SDS011;7108;42.684;23.350;2022-11-15T04:47:16;248.05;;;101.60;;
14066;SDS011;7108;42.684;23.350;2022-11-15T04:49:48;245.02;;;98.05;;
14066;SDS011;7108;42.684;23.350;2022-11-15T04:52:20;213.15;;;97.22;;
14066;SDS011;7108;42.684;23.350;2022-11-15T04:54:45;221.03;;;94.13;;
14066;SDS011;7108;42.684;23.350;2022-11-15T04:57:17;210.30;;;94.30;;
14066;SDS011;7108;42.684;23.350;2022-11-15T04:59:48;216.07;;;92.47;;
14066;SDS011;7108;42.684;23.350;2022-11-15T05:02:14;215.25;;;93.82;;
14066;SDS011;7108;42.684;23.350;2022-11-15T05:04:43;221.88;;;95.15;;
14066;SDS011;7108;42.684;23.350;2022-11-15T05:07:14;205.32;;;93.97;;
14066;SDS011;7108;42.684;23.350;2022-11-15T05:09:42;198.43;;;92.65;;
14066;SDS011;7108;42.684;23.350;2022-11-15T05:12:11;195.47;;;90.20;;
14066;SDS011;7108;42.684;23.350;2022-11-15T05:14:39;201.50;;;91.65;;
14066;SDS011;7108;42.684;23.350;2022-11-15T05:17:05;195.27;;;90.90;;
14066;SDS011;7108;42.684;23.350;2022-11-15T05:19:38;219.93;;;90.93;;
14066;SDS011;7108;42.684;23.350;2022-11-15T05:22:07;205.63;;;91.80;;
14066;SDS011;7108;42.684;23.350;2022-11-15T05:24:36;242.63;;;94.03;;
14066;SDS011;7108;42.684;23.350;2022-11-15T05:27:01;203.20;;;89.07;;
14066;SDS011;7108;42.684;23.350;2022-11-15T05:29:30;208.68;;;91.22;;
14066;SDS011;7108;42.684;23.350;2022-11-15T05:31:56;195.33;;;90.17;;
14066;SDS011;7108;42.684;23.350;2022-11-15T05:34:22;212.60;;;90.45;;
14066;SDS011;7108;42.684;23.350;2022-11-15T05:36:58;207.70;;;86.50;;
14066;SDS011;7108;42.684;23.350;2022-11-15T05:39:27;202.18;;;88.10;;
14066;SDS011;7108;42.684;23.350;2022-11-15T05:41:58;208.20;;;84.07;;
14066;SDS011;7108;42.684;23.350;2022-11-15T05:44:36;190.35;;;83.75;;
14066;SDS011;7108;42.684;23.350;2022-11-15T05:47:04;195.20;;;82.10;;
14066;SDS011;7108;42.684;23.350;2022-11-15T05:49:36;206.15;;;85.90;;
14066;SDS011;7108;42.684;23.350;2022-11-15T05:52:05;226.32;;;87.05;;
14066;SDS011;7108;42.684;23.350;2022-11-15T05:54:33;218.70;;;89.70;;
14066;SDS011;7108;42.684;23.350;2022-11-15T05:57:01;222.75;;;86.63;;
14066;SDS011;7108;42.684;23.350;2022-11-15T05:59:29;201.68;;;85.70;;
14066;SDS011;7108;42.684;23.350;2022-11-15T06:01:56;226.52;;;85.43;;
14066;SDS011;7108;42.684;23.350;2022-11-15T06:04:22;206.30;;;83.80;;
14066;SDS011;7108;42.684;23.350;2022-11-15T06:06:48;230.20;;;85.70;;
14066;SDS011;7108;42.684;23.350;2022-11-15T06:09:13;201.03;;;83.33;;
14066;SDS011;7108;42.684;23.350;2022-11-15T06:11:39;202.53;;;81.87;;
14066;SDS011;7108;42.684;23.350;2022-11-15T06:14:04;191.13;;;83.57;;
14066;SDS011;7108;42.684;23.350;2022-11-15T06:16:33;200.00;;;83.28;;
14066;SDS011;7108;42.684;23.350;2022-11-15T06:19:02;198.83;;;82.37;;
14066;SDS011;7108;42.684;23.350;2022-11-15T06:21:30;197.00;;;84.45;;
14066;SDS011;7108;42.684;23.350;2022-11-15T06:23:58;192.43;;;85.05;;
14066;SDS011;7108;42.684;23.350;2022-11-15T06:26:33;192.93;;;84.10;;
14066;SDS011;7108;42.684;23.350;2022-11-15T06:29:02;196.02;;;83.07;;
14066;SDS011;7108;42.684;23.350;2022-11-15T06:31:32;196.57;;;82.18;;
14066;SDS011;7108;42.684;23.350;2022-11-15T06:33:59;206.07;;;89.05;;
14066;SDS011;7108;42.684;23.350;2022-11-15T06:36:24;203.73;;;84.73;;
14066;SDS011;7108;42.684;23.350;2022-11-15T06:38:50;216.17;;;86.53;;
14066;SDS011;7108;42.684;23.350;2022-11-15T06:41:19;199.27;;;84.80;;
14066;SDS011;7108;42.684;23.350;2022-11-15T06:43:48;212.73;;;87.22;;
14066;SDS011;7108;42.684;23.350;2022-11-15T06:46:14;217.13;;;86.27;;
14066;SDS011;7108;42.684;23.350;2022-11-15T06:48:39;198.70;;;83.90;;
14066;SDS011;7108;42.684;23.350;2022-11-15T06:51:05;204.90;;;87.00;;
14066;SDS011;7108;42.684;23.350;2022-11-15T06:53:37;232.38;;;90.43;;
14066;SDS011;7108;42.684;23.350;2022-11-15T06:56:04;237.10;;;90.03;;
14066;SDS011;7108;42.684;23.350;2022-11-15T06:58:31;208.80;;;89.25;;
14066;SDS011;7108;42.684;23.350;2022-11-15T07:01:00;207.77;;;87.27;;
14066;SDS011;7108;42.684;23.350;2022-11-15T07:03:36;235.77;;;90.00;;
14066;SDS011;7108;42.684;23.350;2022-11-15T07:06:07;233.55;;;88.97;;
14066;SDS011;7108;42.684;23.350;2022-11-15T07:08:37;238.95;;;91.80;;
14066;SDS011;7108;42.684;23.350;2022-11-15T07:11:06;200.20;;;86.65;;
14066;SDS011;7108;42.684;23.350;2022-11-15T07:13:33;199.98;;;81.07;;
14066;SDS011;7108;42.684;23.350;2022-11-15T07:16:06;191.98;;;83.38;;
14066;SDS011;7108;42.684;23.350;2022-11-15T07:18:37;211.20;;;83.75;;
14066;SDS011;7108;42.684;23.350;2022-11-15T07:21:04;208.48;;;86.82;;
14066;SDS011;7108;42.684;23.350;2022-11-15T07:23:35;206.18;;;85.93;;
14066;SDS011;7108;42.684;23.350;2022-11-15T07:26:04;198.00;;;85.10;;
14066;SDS011;7108;42.684;23.350;2022-11-15T07:28:30;200.55;;;84.22;;
14066;SDS011;7108;42.684;23.350;2022-11-15T07:30:56;206.50;;;86.27;;
14066;SDS011;7108;42.684;23.350;2022-11-15T07:33:22;209.37;;;87.03;;
14066;SDS011;7108;42.684;23.350;2022-11-15T07:35:50;209.23;;;84.43;;
14066;SDS011;7108;42.684;23.350;2022-11-15T07:38:16;206.00;;;86.43;;
14066;SDS011;7108;42.684;23.350;2022-11-15T07:40:45;213.07;;;86.20;;
14066;SDS011;7108;42.684;23.350;2022-11-15T07:43:11;204.93;;;85.73;;
14066;SDS011;7108;42.684;23.350;2022-11-15T07:45:41;207.27;;;87.63;;
14066;SDS011;7108;42.684;23.350;2022-11-15T07:48:08;208.90;;;88.73;;
14066;SDS011;7108;42.684;23.350;2022-11-15T07:50:34;206.40;;;85.40;;
14066;SDS011;7108;42.684;23.350;2022-11-15T07:52:59;191.03;;;82.57;;
14066;SDS011;7108;42.684;23.350;2022-11-15T07:55:26;201.43;;;87.47;;
14066;SDS011;7108;42.684;23.350;2022-11-15T07:58:04;219.30;;;90.33;;
14066;SDS011;7108;42.684;23.350;2022-11-15T08:00:36;230.10;;;90.53;;
14066;SDS011;7108;42.684;23.350;2022-11-15T08:05:30;241.57;;;92.13;;
14066;SDS011;7108;42.684;23.350;2022-11-15T08:07:58;214.80;;;90.43;;
14066;SDS011;7108;42.684;23.350;2022-11-15T08:10:25;223.03;;;91.57;;
14066;SDS011;7108;42.684;23.350;2022-11-15T08:13:03;218.17;;;89.03;;
14066;SDS011;7108;42.684;23.350;2022-11-15T08:15:33;240.10;;;90.87;;
14066;SDS011;7108;42.684;23.350;2022-11-15T08:18:02;243.53;;;94.90;;
14066;SDS011;7108;42.684;23.350;2022-11-15T08:20:39;228.33;;;89.83;;
14066;SDS011;7108;42.684;23.350;2022-11-15T08:23:10;246.13;;;93.00;;
14066;SDS011;7108;42.684;23.350;2022-11-15T08:25:42;260.50;;;94.47;;
14066;SDS011;7108;42.684;23.350;2022-11-15T08:28:13;214.40;;;90.70;;
14066;SDS011;7108;42.684;23.350;2022-11-15T08:30:42;254.10;;;93.60;;
14066;SDS011;7108;42.684;23.350;2022-11-15T08:33:11;229.27;;;93.87;;
14066;SDS011;7108;42.684;23.350;2022-11-15T08:35:38;243.67;;;94.53;;
14066;SDS011;7108;42.684;23.350;2022-11-15T08:38:09;234.13;;;94.27;;
14066;SDS011;7108;42.684;23.350;2022-11-15T08:40:36;221.47;;;90.23;;
14066;SDS011;7108;42.684;23.350;2022-11-15T08:43:04;218.33;;;94.50;;
14066;SDS011;7108;42.684;23.350;2022-11-15T08:45:30;229.97;;;91.87;;
14066;SDS011;7108;42.684;23.350;2022-11-15T08:47:56;223.07;;;93.90;;
14066;SDS011;7108;42.684;23.350;2022-11-15T08:50:24;224.27;;;93.87;;
14066;SDS011;7108;42.684;23.350;2022-11-15T08:52:50;231.57;;;95.37;;
14066;SDS011;7108;42.684;23.350;2022-11-15T08:55:15;228.90;;;92.83;;
14066;SDS011;7108;42.684;23.350;2022-11-15T08:57:41;243.70;;;93.80;;
14066;SDS011;7108;42.684;23.350;2022-11-15T09:00:07;231.23;;;93.47;;
14066;SDS011;7108;42.684;23.350;2022-11-15T09:02:33;254.83;;;100.70;;
14066;SDS011;7108;42.684;23.350;2022-11-15T09:05:01;227.00;;;93.90;;
14066;SDS011;7108;42.684;23.350;2022-11-15T09:07:27;227.90;;;93.27;;
14066;SDS011;7108;42.684;23.350;2022-11-15T09:09:54;256.93;;;95.90;;
14066;SDS011;7108;42.684;23.350;2022-11-15T09:12:23;230.87;;;92.87;;
14066;SDS011;7108;42.684;23.350;2022-11-15T09:14:49;238.50;;;95.30;;
14066;SDS011;7108;42.684;23.350;2022-11-15T09:17:17;224.03;;;93.77;;
14066;SDS011;7108;42.684;23.350;2022-11-15T09:19:43;254.17;;;97.43;;
14066;SDS011;7108;42.684;23.350;2022-11-15T09:22:08;231.17;;;94.37;;
14066;SDS011;7108;42.684;23.350;2022-11-15T09:24:34;248.83;;;98.27;;
14066;SDS011;7108;42.684;23.350;2022-11-15T09:27:00;234.43;;;97.03;;
14066;SDS011;7108;42.684;23.350;2022-11-15T09:29:26;241.77;;;97.33;;
14066;SDS011;7108;42.684;23.350;2022-11-15T09:31:54;246.17;;;97.00;;
14066;SDS011;7108;42.684;23.350;2022-11-15T09:34:20;241.33;;;95.30;;
14066;SDS011;7108;42.684;23.350;2022-11-15T09:36:48;233.57;;;98.23;;
14066;SDS011;7108;42.684;23.350;2022-11-15T09:39:14;242.87;;;98.60;;
14066;SDS011;7108;42.684;23.350;2022-11-15T09:49:52;245.47;;;99.10;;
14066;SDS011;7108;42.684;23.350;2022-11-15T09:52:24;252.27;;;100.07;;
14066;SDS011;7108;42.684;23.350;2022-11-15T09:54:51;302.43;;;107.17;;
14066;SDS011;7108;42.684;23.350;2022-11-15T09:57:23;300.87;;;106.43;;
14066;SDS011;7108;42.684;23.350;2022-11-15T10:05:54;316.17;;;108.23;;
14066;SDS011;7108;42.684;23.350;2022-11-15T10:08:35;311.67;;;107.00;;
14066;SDS011;7108;42.684;23.350;2022-11-15T10:11:10;299.27;;;105.50;;
14066;SDS011;7108;42.684;23.350;2022-11-15T10:13:40;267.10;;;101.57;;
14066;SDS011;7108;42.684;23.350;2022-11-15T10:22:22;313.67;;;109.37;;
14066;SDS011;7108;42.684;23.350;2022-11-15T10:24:58;328.43;;;108.90;;
14066;SDS011;7108;42.684;23.350;2022-11-15T10:27:28;287.83;;;102.03;;
14066;SDS011;7108;42.684;23.350;2022-11-15T10:29:54;286.73;;;101.70;;
14066;SDS011;7108;42.684;23.350;2022-11-15T10:32:20;294.40;;;107.43;;
14066;SDS011;7108;42.684;23.350;2022-11-15T10:34:47;355.87;;;134.10;;
14066;SDS011;7108;42.684;23.350;2022-11-15T10:37:30;313.27;;;108.63;;
14066;SDS011;7108;42.684;23.350;2022-11-15T10:40:03;302.20;;;108.57;;
14066;SDS011;7108;42.684;23.350;2022-11-15T10:43:12;321.40;;;109.43;;
14066;SDS011;7108;42.684;23.350;2022-11-15T10:45:40;316.50;;;109.77;;
14066;SDS011;7108;42.684;23.350;2022-11-15T10:48:24;277.27;;;106.77;;
14066;SDS011;7108;42.684;23.350;2022-11-15T10:50:51;279.87;;;108.73;;
14066;SDS011;7108;42.684;23.350;2022-11-15T10:53:21;255.30;;;108.03;;
14066;SDS011;7108;42.684;23.350;2022-11-15T10:55:54;291.87;;;111.13;;
14066;SDS011;7108;42.684;23.350;2022-11-15T10:58:35;287.37;;;106.30;;
14066;SDS011;7108;42.684;23.350;2022-11-15T11:01:22;276.07;;;106.53;;
14066;SDS011;7108;42.684;23.350;2022-11-15T11:06:26;256.63;;;104.53;;
14066;SDS011;7108;42.684;23.350;2022-11-15T11:08:58;270.13;;;104.77;;
14066;SDS011;7108;42.684;23.350;2022-11-15T11:11:44;241.20;;;100.87;;
14066;SDS011;7108;42.684;23.350;2022-11-15T11:14:12;244.33;;;101.00;;
14066;SDS011;7108;42.684;23.350;2022-11-15T11:16:47;261.60;;;100.60;;
14066;SDS011;7108;42.684;23.350;2022-11-15T11:30:31;239.27;;;97.80;;
14066;SDS011;7108;42.684;23.350;2022-11-15T11:33:29;245.00;;;98.30;;
14066;SDS011;7108;42.684;23.350;2022-11-15T11:36:03;243.23;;;97.40;;
14066;SDS011;7108;42.684;23.350;2022-11-15T11:38:39;235.13;;;98.93;;
14066;SDS011;7108;42.684;23.350;2022-11-15T11:41:39;255.40;;;101.10;;
14066;SDS011;7108;42.684;23.350;2022-11-15T11:47:20;235.73;;;97.70;;
14066;SDS011;7108;42.684;23.350;2022-11-15T11:49:51;256.10;;;96.73;;
14066;SDS011;7108;42.684;23.350;2022-11-15T11:52:33;245.07;;;98.03;;
14066;SDS011;7108;42.684;23.350;2022-11-15T12:00:38;243.13;;;98.70;;
14066;SDS011;7108;42.684;23.350;2022-11-15T12:06:23;243.90;;;98.17;;
14066;SDS011;7108;42.684;23.350;2022-11-15T12:12:13;278.13;;;102.57;;
14066;SDS011;7108;42.684;23.350;2022-11-15T12:14:56;250.83;;;96.13;;
14066;SDS011;7108;42.684;23.350;2022-11-15T12:17:28;251.53;;;100.57;;
14066;SDS011;7108;42.684;23.350;2022-11-15T12:19:58;271.80;;;104.00;;
14066;SDS011;7108;42.684;23.350;2022-11-15T12:22:52;260.90;;;101.60;;
14066;SDS011;7108;42.684;23.350;2022-11-15T12:25:27;230.97;;;95.33;;
14066;SDS011;7108;42.684;23.350;2022-11-15T12:33:33;270.87;;;99.93;;
14066;SDS011;7108;42.684;23.350;2022-11-15T12:36:08;239.13;;;97.67;;
14066;SDS011;7108;42.684;23.350;2022-11-15T12:41:25;252.67;;;99.90;;
14066;SDS011;7108;42.684;23.350;2022-11-15T12:43:52;276.70;;;101.00;;
14066;SDS011;7108;42.684;23.350;2022-11-15T12:46:23;256.90;;;102.53;;
14066;SDS011;7108;42.684;23.350;2022-11-15T12:52:14;297.50;;;108.17;;
14066;SDS011;7108;42.684;23.350;2022-11-15T13:02:24;251.37;;;102.20;;
14066;SDS011;7108;42.684;23.350;2022-11-15T13:04:52;283.23;;;104.07;;
14066;SDS011;7108;42.684;23.350;2022-11-15T13:27:48;264.37;;;104.63;;
14066;SDS011;7108;42.684;23.350;2022-11-15T13:30:26;259.43;;;105.20;;
14066;SDS011;7108;42.684;23.350;2022-11-15T13:32:54;283.80;;;108.63;;
14066;SDS011;7108;42.684;23.350;2022-11-15T13:35:22;263.00;;;105.20;;
14066;SDS011;7108;42.684;23.350;2022-11-15T13:37:50;247.80;;;105.23;;
14066;SDS011;7108;42.684;23.350;2022-11-15T13:40:22;245.33;;;106.77;;
14066;SDS011;7108;42.684;23.350;2022-11-15T13:42:59;297.50;;;109.00;;
14066;SDS011;7108;42.684;23.350;2022-11-15T13:45:39;278.20;;;107.70;;
14066;SDS011;7108;42.684;23.350;2022-11-15T13:48:04;276.63;;;104.87;;
14066;SDS011;7108;42.684;23.350;2022-11-15T13:50:31;257.70;;;102.13;;
14066;SDS011;7108;42.684;23.350;2022-11-15T13:53:02;275.97;;;108.30;;
14066;SDS011;7108;42.684;23.350;2022-11-15T13:55:29;252.10;;;106.57;;
14066;SDS011;7108;42.684;23.350;2022-11-15T13:58:01;299.47;;;109.23;;
14066;SDS011;7108;42.684;23.350;2022-11-15T14:00:42;270.07;;;105.73;;
14066;SDS011;7108;42.684;23.350;2022-11-15T14:03:19;268.57;;;107.50;;
14066;SDS011;7108;42.684;23.350;2022-11-15T14:08:40;279.57;;;109.00;;
14066;SDS011;7108;42.684;23.350;2022-11-15T14:13:41;259.40;;;106.00;;
14066;SDS011;7108;42.684;23.350;2022-11-15T14:16:19;259.17;;;106.03;;
14066;SDS011;7108;42.684;23.350;2022-11-15T14:18:57;278.10;;;105.60;;
14066;SDS011;7108;42.684;23.350;2022-11-15T14:21:22;260.03;;;104.67;;
14066;SDS011;7108;42.684;23.350;2022-11-15T14:23:48;249.23;;;102.80;;
14066;SDS011;7108;42.684;23.350;2022-11-15T14:28:52;278.73;;;102.07;;
14066;SDS011;7108;42.684;23.350;2022-11-15T14:31:17;242.63;;;98.87;;
14066;SDS011;7108;42.684;23.350;2022-11-15T14:33:45;269.93;;;101.67;;
14066;SDS011;7108;42.684;23.350;2022-11-15T14:36:11;252.17;;;101.83;;
14066;SDS011;7108;42.684;23.350;2022-11-15T14:38:39;283.30;;;104.07;;
14066;SDS011;7108;42.684;23.350;2022-11-15T14:41:05;263.17;;;104.13;;
14066;SDS011;7108;42.684;23.350;2022-11-15T14:43:33;278.43;;;104.93;;
14066;SDS011;7108;42.684;23.350;2022-11-15T14:45:58;278.33;;;105.93;;
14066;SDS011;7108;42.684;23.350;2022-11-15T14:48:24;266.70;;;102.50;;
14066;SDS011;7108;42.684;23.350;2022-11-15T14:50:49;276.13;;;105.80;;
14066;SDS011;7108;42.684;23.350;2022-11-15T14:53:15;256.43;;;104.80;;
14066;SDS011;7108;42.684;23.350;2022-11-15T14:55:42;264.03;;;105.37;;
14066;SDS011;7108;42.684;23.350;2022-11-15T14:58:08;261.33;;;104.80;;
14066;SDS011;7108;42.684;23.350;2022-11-15T15:00:38;269.00;;;103.83;;
14066;SDS011;7108;42.684;23.350;2022-11-15T15:03:05;259.73;;;104.83;;
14066;SDS011;7108;42.684;23.350;2022-11-15T15:05:32;257.87;;;102.77;;
14066;SDS011;7108;42.684;23.350;2022-11-15T15:08:00;319.93;;;109.00;;
14066;SDS011;7108;42.684;23.350;2022-11-15T15:10:37;308.30;;;107.43;;
14066;SDS011;7108;42.684;23.350;2022-11-15T15:13:04;318.50;;;107.30;;
14066;SDS011;7108;42.684;23.350;2022-11-15T15:15:35;300.20;;;107.23;;
14066;SDS011;7108;42.684;23.350;2022-11-15T15:18:04;333.73;;;109.90;;
14066;SDS011;7108;42.684;23.350;2022-11-15T15:20:31;334.02;;;127.30;;
14066;SDS011;7108;42.684;23.350;2022-11-15T15:23:13;355.63;;;117.80;;
14066;SDS011;7108;42.684;23.350;2022-11-15T15:25:41;295.43;;;106.97;;
14066;SDS011;7108;42.684;23.350;2022-11-15T15:28:07;294.67;;;108.33;;
14066;SDS011;7108;42.684;23.350;2022-11-15T15:30:34;257.33;;;104.40;;
14066;SDS011;7108;42.684;23.350;2022-11-15T15:33:06;272.53;;;104.43;;
14066;SDS011;7108;42.684;23.350;2022-11-15T15:35:32;255.17;;;100.17;;
14066;SDS011;7108;42.684;23.350;2022-11-15T15:38:01;255.90;;;101.57;;
14066;SDS011;7108;42.684;23.350;2022-11-15T15:40:28;267.63;;;103.43;;
14066;SDS011;7108;42.684;23.350;2022-11-15T15:42:55;291.33;;;104.93;;
14066;SDS011;7108;42.684;23.350;2022-11-15T15:45:21;260.97;;;105.17;;
14066;SDS011;7108;42.684;23.350;2022-11-15T15:47:47;261.40;;;99.93;;
14066;SDS011;7108;42.684;23.350;2022-11-15T15:50:17;252.43;;;102.60;;
14066;SDS011;7108;42.684;23.350;2022-11-15T15:52:47;259.47;;;102.60;;
14066;SDS011;7108;42.684;23.350;2022-11-15T15:55:13;253.37;;;99.97;;
14066;SDS011;7108;42.684;23.350;2022-11-15T15:57:39;268.83;;;104.43;;
14066;SDS011;7108;42.684;23.350;2022-11-15T16:00:04;254.33;;;99.57;;
14066;SDS011;7108;42.684;23.350;2022-11-15T16:02:30;282.90;;;104.53;;
14066;SDS011;7108;42.684;23.350;2022-11-15T16:04:56;270.17;;;101.27;;
14066;SDS011;7108;42.684;23.350;2022-11-15T16:07:23;277.93;;;104.00;;
14066;SDS011;7108;42.684;23.350;2022-11-15T16:09:49;285.77;;;105.83;;
14066;SDS011;7108;42.684;23.350;2022-11-15T16:14:54;278.17;;;108.30;;
14066;SDS011;7108;42.684;23.350;2022-11-15T16:17:26;293.63;;;109.03;;
14066;SDS011;7108;42.684;23.350;2022-11-15T16:19:57;336.93;;;106.27;;
14066;SDS011;7108;42.684;23.350;2022-11-15T16:22:23;272.13;;;105.47;;
14066;SDS011;7108;42.684;23.350;2022-11-15T16:24:48;310.77;;;110.53;;
14066;SDS011;7108;42.684;23.350;2022-11-15T16:27:15;274.93;;;108.30;;